Time;durP1;ratioP1;P1;durP2;ratioP2;P2;SDS_P1;SDS_P2;PMS_P1;PMS_P2;Temp;Humidity;BMP_temperature;BMP_pressure;BME280_temperature;BME280_humidity;BME280_pressure;Samples;Min_cycle;Max_cycle;Signal;HPM_P1;HPM_P2
2021/07/22 00:00:27;;;;;;;22.40;13.82;;;13.40;99.90;;;;;;4962554;28;20050;-76
2021/07/22 00:02:54;;;;;;;25.48;14.63;;;13.30;99.90;;;;;;4964496;28;20078;-76
2021/07/22 00:05:21;;;;;;;26.75;14.43;;;13.30;99.90;;;;;;4963728;28;20051;-75
2021/07/22 00:07:48;;;;;;;24.10;14.65;;;13.10;99.90;;;;;;4929915;28;20106;-77
2021/07/22 00:10:16;;;;;;;25.08;15.23;;;13.20;99.90;;;;;;4966395;28;20063;-75
2021/07/22 00:12:44;;;;;;;22.17;14.30;;;13.20;99.90;;;;;;4965929;28;20062;-77
2021/07/22 00:15:11;;;;;;;26.52;15.07;;;13.10;99.90;;;;;;4947974;28;20063;-74
2021/07/22 00:17:38;;;;;;;25.63;15.60;;;13.10;99.90;;;;;;4938487;28;20324;-75
2021/07/22 00:20:06;;;;;;;29.30;16.08;;;13.10;99.90;;;;;;4953581;28;20519;-78
2021/07/22 00:22:37;;;;;;;24.90;15.02;;;13.00;99.90;;;;;;4962920;28;20504;-78
2021/07/22 00:25:08;;;;;;;25.33;15.63;;;13.10;99.90;;;;;;4957415;28;20061;-75
2021/07/22 00:27:35;;;;;;;25.75;13.82;;;13.10;99.90;;;;;;4947332;28;20142;-75
2021/07/22 00:30:03;;;;;;;28.40;15.07;;;13.10;99.90;;;;;;4957181;28;20110;-75
2021/07/22 00:32:30;;;;;;;23.25;15.52;;;13.10;99.90;;;;;;4966179;28;20539;-75
2021/07/22 00:34:57;;;;;;;25.48;15.15;;;12.90;99.90;;;;;;4935107;28;20129;-75
2021/07/22 00:37:24;;;;;;;26.40;16.05;;;13.00;99.90;;;;;;4953633;28;20051;-76
2021/07/22 00:39:51;;;;;;;24.55;14.88;;;13.10;99.90;;;;;;4945895;28;20058;-75
2021/07/22 00:42:18;;;;;;;30.65;15.93;;;13.10;99.90;;;;;;4946517;28;20047;-75
2021/07/22 00:44:45;;;;;;;28.80;15.48;;;13.10;99.90;;;;;;4947986;28;20054;-77
2021/07/22 00:47:14;;;;;;;22.67;14.02;;;13.10;99.90;;;;;;4949351;28;20632;-78
2021/07/22 00:49:46;;;;;;;24.80;15.55;;;12.80;99.90;;;;;;4939501;28;20097;-78
2021/07/22 00:52:13;;;;;;;25.77;14.80;;;12.60;99.90;;;;;;4977591;28;21611;-76
2021/07/22 00:54:40;;;;;;;25.52;13.93;;;12.60;99.90;;;;;;4943893;28;20039;-75
2021/07/22 00:57:06;;;;;;;24.95;14.02;;;12.60;99.90;;;;;;4945484;28;20451;-75
2021/07/22 00:59:33;;;;;;;22.38;14.48;;;12.60;99.90;;;;;;4954515;28;20465;-76
2021/07/22 01:02:03;;;;;;;24.27;14.27;;;12.50;99.90;;;;;;4957759;28;20078;-75
2021/07/22 01:04:31;;;;;;;23.38;15.32;;;12.40;99.90;;;;;;4945182;28;20054;-77
2021/07/22 01:06:58;;;;;;;24.50;14.98;;;12.50;99.90;;;;;;4929767;28;20179;-74
2021/07/22 01:09:25;;;;;;;32.53;17.20;;;12.40;99.90;;;;;;4961496;28;20059;-78
2021/07/22 01:11:58;;;;;;;26.45;15.35;;;12.40;99.90;;;;;;4948497;28;20059;-75
2021/07/22 01:14:25;;;;;;;33.20;15.70;;;12.40;99.90;;;;;;4938811;28;20058;-76
2021/07/22 01:16:55;;;;;;;28.33;15.27;;;12.40;99.90;;;;;;4939125;28;20070;-76
2021/07/22 01:19:22;;;;;;;29.95;16.42;;;12.20;99.90;;;;;;4953808;28;20074;-76
2021/07/22 01:21:49;;;;;;;25.63;15.48;;;12.10;99.90;;;;;;4931577;28;20069;-76
2021/07/22 01:24:16;;;;;;;24.00;15.48;;;12.20;99.90;;;;;;4952652;28;20439;-75
2021/07/22 01:27:00;;;;;;;28.80;15.32;;;12.30;99.90;;;;;;4944075;28;20063;-76
2021/07/22 01:29:39;;;;;;;30.42;16.30;;;12.20;99.90;;;;;;4945399;28;20516;-74
2021/07/22 01:32:07;;;;;;;27.77;16.25;;;12.20;99.90;;;;;;4950671;28;20507;-75
2021/07/22 01:34:35;;;;;;;30.98;15.85;;;12.00;99.90;;;;;;4918330;29;20035;-77
2021/07/22 01:37:02;;;;;;;28.80;16.40;;;12.00;99.90;;;;;;4914560;28;20047;-76
2021/07/22 01:39:31;;;;;;;26.20;15.25;;;12.00;99.90;;;;;;4945971;28;20411;-76
2021/07/22 01:41:59;;;;;;;33.30;17.60;;;11.90;99.90;;;;;;4963313;28;20051;-78
2021/07/22 01:44:28;;;;;;;30.83;17.10;;;11.80;99.90;;;;;;4966688;28;20109;-76
2021/07/22 01:46:57;;;;;;;29.70;16.67;;;11.90;99.90;;;;;;4956636;28;20047;-76
2021/07/22 01:49:24;;;;;;;35.83;17.75;;;11.90;99.90;;;;;;4953265;28;20080;-76
2021/07/22 01:51:55;;;;;;;26.70;15.18;;;11.90;99.90;;;;;;4962919;28;20051;-76
2021/07/22 01:54:23;;;;;;;28.95;15.52;;;11.90;99.90;;;;;;4966979;28;20086;-77
2021/07/22 01:56:52;;;;;;;28.80;16.73;;;11.90;99.90;;;;;;4965850;28;20061;-75
2021/07/22 01:59:19;;;;;;;28.38;15.50;;;11.90;99.90;;;;;;4934405;28;20431;-75
2021/07/22 02:01:46;;;;;;;30.85;16.80;;;11.90;99.90;;;;;;4950965;28;20046;-76
2021/07/22 02:04:24;;;;;;;33.58;18.05;;;12.00;99.90;;;;;;4950071;28;20577;-76
2021/07/22 02:06:52;;;;;;;32.90;16.88;;;11.90;99.90;;;;;;4966803;28;20625;-78
2021/07/22 02:09:19;;;;;;;33.58;18.08;;;11.80;99.90;;;;;;4950313;28;20071;-75
2021/07/22 02:11:47;;;;;;;34.33;17.08;;;11.80;99.90;;;;;;4931825;29;20245;-76
2021/07/22 02:14:15;;;;;;;33.30;18.63;;;11.90;99.90;;;;;;4951382;28;20054;-76
2021/07/22 02:16:42;;;;;;;24.55;14.40;;;11.90;99.90;;;;;;4954435;28;20050;-78
2021/07/22 02:19:12;;;;;;;27.45;14.32;;;11.90;99.90;;;;;;4948218;28;20053;-75
2021/07/22 02:21:40;;;;;;;31.77;15.45;;;11.80;99.90;;;;;;4948202;28;20054;-76
2021/07/22 02:24:08;;;;;;;30.40;16.98;;;11.90;99.90;;;;;;4947111;28;20134;-77
2021/07/22 02:26:47;;;;;;;30.33;16.33;;;11.90;99.90;;;;;;4964323;28;20515;-76
2021/07/22 02:29:14;;;;;;;37.95;17.45;;;12.00;99.90;;;;;;4945964;28;20079;-76
2021/07/22 02:31:41;;;;;;;28.80;14.63;;;12.00;99.90;;;;;;4963338;28;20075;-77
2021/07/22 02:34:12;;;;;;;24.52;15.57;;;12.00;99.90;;;;;;4947930;28;20488;-76
2021/07/22 02:36:40;;;;;;;25.75;15.13;;;12.00;99.90;;;;;;4948034;28;20058;-76
2021/07/22 02:39:14;;;;;;;23.83;14.88;;;12.00;99.90;;;;;;4962657;28;20059;-76
2021/07/22 02:41:42;;;;;;;32.00;16.63;;;12.10;99.90;;;;;;4932244;28;20427;-75
2021/07/22 02:44:10;;;;;;;28.75;15.57;;;12.10;99.90;;;;;;4936623;28;20090;-75
2021/07/22 02:46:46;;;;;;;31.15;15.43;;;12.10;99.90;;;;;;4973428;28;20081;-77
2021/07/22 02:49:13;;;;;;;35.85;16.27;;;12.10;99.90;;;;;;4952464;28;20051;-77
2021/07/22 02:51:40;;;;;;;26.35;16.02;;;12.20;99.90;;;;;;4965108;28;20078;-74
2021/07/22 02:54:11;;;;;;;27.95;15.52;;;12.20;99.90;;;;;;4963998;28;20146;-75
2021/07/22 02:56:39;;;;;;;31.45;15.85;;;12.30;99.90;;;;;;4933484;28;20062;-76
2021/07/22 02:59:12;;;;;;;27.00;15.50;;;12.40;99.90;;;;;;4964200;28;20050;-76
2021/07/22 03:01:41;;;;;;;26.52;14.75;;;12.50;99.90;;;;;;4950511;28;20073;-76
2021/07/22 03:04:16;;;;;;;28.33;15.07;;;12.50;99.90;;;;;;4949141;28;20531;-77
2021/07/22 03:06:52;;;;;;;27.92;14.50;;;12.60;99.90;;;;;;4947309;28;20051;-77
2021/07/22 03:09:19;;;;;;;23.15;14.27;;;12.70;99.90;;;;;;4954466;28;20377;-75
2021/07/22 03:11:48;;;;;;;26.80;15.60;;;12.70;99.90;;;;;;4966119;28;20055;-75
2021/07/22 03:14:17;;;;;;;27.77;15.20;;;12.70;99.90;;;;;;4957487;28;20070;-74
2021/07/22 03:16:44;;;;;;;26.45;14.40;;;12.80;99.90;;;;;;4932453;28;20055;-76
2021/07/22 03:19:33;;;;;;;23.10;13.80;;;12.70;99.90;;;;;;4962919;28;20082;-77
2021/07/22 03:22:23;;;;;;;24.88;13.85;;;12.80;99.90;;;;;;4959040;28;20051;-75
2021/07/22 03:24:57;;;;;;;25.88;14.65;;;12.80;99.90;;;;;;4953812;28;20057;-77
2021/07/22 03:27:44;;;;;;;26.38;15.00;;;13.00;99.90;;;;;;4946047;28;20162;-77
2021/07/22 03:30:28;;;;;;;22.98;13.85;;;13.10;99.90;;;;;;4946068;28;20057;-76
2021/07/22 03:33:13;;;;;;;29.67;15.13;;;12.90;99.90;;;;;;4948394;28;20049;-75
2021/07/22 03:35:45;;;;;;;33.63;16.02;;;12.90;99.90;;;;;;4959375;28;20472;-75
2021/07/22 03:38:15;;;;;;;26.15;14.50;;;13.00;99.90;;;;;;4964726;28;20065;-78
2021/07/22 03:41:02;;;;;;;26.63;15.38;;;12.90;99.90;;;;;;4964931;28;20047;-76
2021/07/22 03:43:29;;;;;;;27.75;16.00;;;13.00;99.90;;;;;;4931021;29;20758;-75
2021/07/22 03:46:00;;;;;;;27.75;15.57;;;13.10;99.90;;;;;;4950496;28;20043;-77
2021/07/22 03:48:30;;;;;;;26.52;14.52;;;13.10;99.90;;;;;;4937983;28;20066;-76
2021/07/22 03:50:57;;;;;;;28.20;14.95;;;13.20;99.90;;;;;;4930654;28;20145;-76
2021/07/22 03:53:24;;;;;;;27.80;15.02;;;13.30;99.90;;;;;;4979326;28;20145;-75
2021/07/22 03:55:53;;;;;;;27.75;15.00;;;13.40;99.90;;;;;;4937222;28;20051;-75
2021/07/22 03:58:39;;;;;;;25.02;15.10;;;13.30;99.90;;;;;;4952972;28;20062;-75
2021/07/22 04:01:29;;;;;;;23.00;14.15;;;13.40;99.90;;;;;;4947164;28;20133;-75
2021/07/22 04:03:58;;;;;;;24.60;15.35;;;13.40;99.90;;;;;;4930073;29;20055;-75
2021/07/22 04:06:27;;;;;;;24.95;13.95;;;13.40;99.90;;;;;;4942870;28;20039;-76
2021/07/22 04:08:54;;;;;;;24.15;14.93;;;13.50;99.90;;;;;;4963748;28;20050;-76
2021/07/22 04:11:47;;;;;;;22.75;13.70;;;13.50;99.90;;;;;;4950018;28;20078;-76
2021/07/22 04:14:24;;;;;;;24.25;13.20;;;13.50;99.90;;;;;;4952862;28;20142;-76
2021/07/22 04:17:14;;;;;;;23.08;14.18;;;13.40;99.90;;;;;;4946161;28;20488;-75
2021/07/22 04:20:01;;;;;;;30.85;13.70;;;13.70;99.90;;;;;;4952420;28;20340;-75
2021/07/22 04:22:49;;;;;;;21.75;13.07;;;13.80;99.90;;;;;;4933866;29;20514;-75
2021/07/22 04:25:33;;;;;;;28.60;15.43;;;13.80;99.90;;;;;;4948725;28;20074;-76
2021/07/22 04:28:09;;;;;;;26.30;13.93;;;13.90;99.90;;;;;;4931037;29;20130;-75
2021/07/22 04:30:38;;;;;;;26.98;14.80;;;13.70;99.90;;;;;;4945230;28;20063;-75
2021/07/22 04:33:23;;;;;;;27.25;15.07;;;13.70;99.90;;;;;;4943380;28;20125;-76
2021/07/22 04:35:59;;;;;;;26.95;14.73;;;13.80;99.90;;;;;;4931077;29;20121;-75
2021/07/22 04:38:40;;;;;;;24.38;14.65;;;13.90;99.90;;;;;;4946593;28;20061;-76
2021/07/22 04:41:22;;;;;;;25.30;14.43;;;14.00;99.90;;;;;;4945108;28;20423;-75
2021/07/22 04:44:21;;;;;;;25.58;14.05;;;14.10;99.90;;;;;;4955408;28;20220;-75
2021/07/22 04:47:13;;;;;;;25.58;14.63;;;14.00;99.90;;;;;;4944606;28;20585;-75
2021/07/22 04:50:10;;;;;;;22.45;14.15;;;14.10;99.90;;;;;;4966737;28;20159;-75
2021/07/22 04:52:53;;;;;;;23.92;13.70;;;14.30;99.90;;;;;;4948801;28;20190;-75
2021/07/22 04:55:31;;;;;;;22.23;14.40;;;14.40;99.90;;;;;;4947371;28;20062;-76
2021/07/22 04:57:59;;;;;;;24.65;13.35;;;14.60;99.90;;;;;;4932827;28;20263;-75
2021/07/22 05:00:28;;;;;;;24.55;12.55;;;14.60;99.90;;;;;;4983462;28;20059;-76
2021/07/22 05:02:59;;;;;;;25.98;15.35;;;14.70;99.90;;;;;;4966009;28;20050;-76
2021/07/22 05:05:29;;;;;;;23.42;14.55;;;14.70;99.90;;;;;;4962486;28;20267;-75
2021/07/22 05:08:28;;;;;;;25.27;14.43;;;14.90;99.90;;;;;;4942242;28;20094;-77
2021/07/22 05:11:05;;;;;;;22.10;13.13;;;15.00;99.90;;;;;;4953953;29;20094;-74
2021/07/22 05:13:48;;;;;;;24.00;15.43;;;15.00;99.90;;;;;;4974567;28;20070;-76
2021/07/22 05:16:34;;;;;;;23.17;14.00;;;15.00;99.90;;;;;;4980698;28;20048;-76
2021/07/22 05:19:16;;;;;;;22.02;14.27;;;15.00;99.90;;;;;;5003310;28;20110;-78
2021/07/22 05:22:06;;;;;;;21.27;13.02;;;15.20;99.90;;;;;;4964785;28;20051;-75
2021/07/22 05:24:52;;;;;;;21.23;13.52;;;15.30;99.90;;;;;;4962746;28;20082;-77
2021/07/22 05:27:28;;;;;;;22.75;14.13;;;15.40;99.90;;;;;;4943333;29;20051;-76
2021/07/22 05:30:13;;;;;;;;;;;15.50;99.90;;;;;;4950073;28;20043;-75
2021/07/22 05:32:54;;;;;;;21.45;13.55;;;15.60;99.90;;;;;;4948130;28;19923;-75
2021/07/22 05:35:41;;;;;;;23.08;14.52;;;15.80;99.90;;;;;;4949936;28;20051;-75
2021/07/22 05:38:16;;;;;;;21.05;13.25;;;15.90;99.90;;;;;;4965581;28;20055;-75
2021/07/22 05:40:43;;;;;;;22.15;14.60;;;16.00;99.90;;;;;;4931562;28;20051;-76
2021/07/22 05:43:10;;;;;;;24.67;14.10;;;16.00;99.90;;;;;;4966107;28;20459;-77
2021/07/22 05:45:36;;;;;;;21.55;14.13;;;16.10;99.90;;;;;;4965359;28;20130;-76
2021/07/22 05:48:04;;;;;;;24.83;14.95;;;16.20;99.90;;;;;;4948623;28;20047;-77
2021/07/22 05:50:31;;;;;;;25.10;13.88;;;16.30;99.90;;;;;;4964151;28;20071;-77
2021/07/22 05:52:58;;;;;;;23.05;15.20;;;16.50;99.90;;;;;;4980183;28;20049;-75
2021/07/22 05:55:28;;;;;;;27.13;16.20;;;16.60;99.90;;;;;;4937449;28;20047;-77
2021/07/22 05:57:55;;;;;;;22.15;14.52;;;16.50;99.90;;;;;;4967680;28;20223;-75
2021/07/22 06:00:22;;;;;;;22.73;16.00;;;16.70;99.90;;;;;;4980783;28;20047;-77
2021/07/22 06:02:49;;;;;;;23.60;14.98;;;16.80;99.90;;;;;;4980308;28;20411;-77
2021/07/22 06:05:19;;;;;;;25.63;15.35;;;16.90;99.90;;;;;;4989012;28;20312;-75
2021/07/22 06:07:46;;;;;;;22.10;15.20;;;16.90;99.90;;;;;;4980263;28;20559;-75
2021/07/22 06:10:13;;;;;;;20.10;13.65;;;17.10;99.90;;;;;;4969484;28;20079;-76
2021/07/22 06:12:41;;;;;;;18.70;14.20;;;17.30;99.90;;;;;;4970057;28;20141;-77
2021/07/22 06:15:11;;;;;;;24.52;15.90;;;17.40;99.90;;;;;;4969326;28;20069;-76
2021/07/22 06:17:38;;;;;;;21.50;15.07;;;17.50;99.90;;;;;;4969330;28;20046;-77
2021/07/22 06:20:06;;;;;;;19.38;14.77;;;17.60;99.90;;;;;;4994145;28;20058;-76
2021/07/22 06:22:38;;;;;;;22.20;14.88;;;17.70;99.90;;;;;;4984955;28;20050;-75
2021/07/22 06:25:06;;;;;;;21.67;15.13;;;17.80;99.90;;;;;;4963557;28;20059;-76
2021/07/22 06:27:33;;;;;;;20.98;15.02;;;17.80;99.90;;;;;;4948802;28;20074;-76
2021/07/22 06:30:01;;;;;;;22.10;15.43;;;17.80;99.90;;;;;;4949532;28;20046;-77
2021/07/22 06:32:30;;;;;;;18.73;14.63;;;18.00;99.90;;;;;;4945765;28;20055;-75
2021/07/22 06:34:57;;;;;;;21.52;14.60;;;18.00;99.90;;;;;;4930912;29;20059;-75
2021/07/22 06:37:24;;;;;;;20.05;14.50;;;18.20;99.90;;;;;;4946794;28;20051;-76
2021/07/22 06:39:59;;;;;;;25.85;15.75;;;18.40;99.90;;;;;;4947131;28;20063;-77
2021/07/22 06:42:26;;;;;;;21.75;15.88;;;18.60;99.90;;;;;;4954757;28;20047;-74
2021/07/22 06:44:53;;;;;;;24.45;15.07;;;18.80;99.90;;;;;;4956081;28;20043;-74
2021/07/22 06:47:19;;;;;;;21.40;17.02;;;18.80;99.90;;;;;;4950351;28;20047;-76
2021/07/22 06:49:46;;;;;;;23.50;17.23;;;18.90;99.90;;;;;;4935843;28;20051;-74
2021/07/22 06:52:13;;;;;;;21.48;17.65;;;19.00;99.90;;;;;;4951427;28;20352;-75
2021/07/22 06:54:40;;;;;;;23.23;17.63;;;19.10;99.90;;;;;;4939297;28;20526;-76
2021/07/22 06:57:07;;;;;;;23.55;17.00;;;19.20;99.90;;;;;;4962253;28;20059;-77
2021/07/22 06:59:34;;;;;;;22.98;17.23;;;19.30;99.90;;;;;;4947414;28;20054;-76
2021/07/22 07:02:01;;;;;;;21.25;17.52;;;19.40;99.90;;;;;;4946135;28;20145;-75
2021/07/22 07:04:28;;;;;;;22.80;18.13;;;19.40;99.90;;;;;;4914673;29;20047;-74
2021/07/22 07:06:55;;;;;;;21.52;17.58;;;19.40;99.90;;;;;;4953253;28;20423;-76
2021/07/22 07:09:22;;;;;;;21.35;17.25;;;19.50;99.90;;;;;;4980993;28;20055;-75
2021/07/22 07:11:49;;;;;;;28.65;19.42;;;19.50;99.90;;;;;;4950650;28;20051;-76
2021/07/22 07:14:15;;;;;;;23.15;17.50;;;19.60;99.90;;;;;;4947956;29;20551;-75
2021/07/22 07:16:42;;;;;;;20.30;17.33;;;19.70;99.90;;;;;;4945925;28;20098;-76
2021/07/22 07:19:09;;;;;;;23.45;18.83;;;19.80;99.90;;;;;;4971932;28;20465;-75
2021/07/22 07:21:39;;;;;;;20.15;17.85;;;20.00;99.90;;;;;;4964676;28;20055;-76
2021/07/22 07:24:06;;;;;;;25.67;19.35;;;20.00;99.90;;;;;;4965716;28;20237;-77
2021/07/22 07:26:33;;;;;;;20.25;18.13;;;20.00;99.90;;;;;;4962728;28;20097;-77
2021/07/22 07:29:00;;;;;;;21.98;19.65;;;20.00;99.90;;;;;;4965887;28;20547;-76
2021/07/22 07:31:27;;;;;;;22.95;20.48;;;19.90;99.90;;;;;;4964278;28;20051;-77
2021/07/22 07:33:54;;;;;;;22.42;19.77;;;20.00;99.90;;;;;;4955559;28;20061;-75
2021/07/22 07:36:21;;;;;;;23.20;19.83;;;20.10;99.90;;;;;;4957886;28;20550;-75
2021/07/22 07:38:48;;;;;;;24.00;19.20;;;20.30;99.90;;;;;;4953667;28;20054;-75
2021/07/22 07:41:15;;;;;;;21.75;19.55;;;20.30;99.90;;;;;;4946523;28;20047;-77
2021/07/22 07:43:42;;;;;;;28.60;20.42;;;20.50;99.90;;;;;;4967372;28;20066;-76
2021/07/22 07:46:09;;;;;;;21.60;19.40;;;20.70;99.90;;;;;;4954154;28;20051;-76
2021/07/22 07:48:36;;;;;;;22.65;20.17;;;20.70;99.90;;;;;;4957378;28;20050;-77
2021/07/22 07:51:05;;;;;;;23.52;21.05;;;21.00;99.90;;;;;;4978933;28;20470;-76
2021/07/22 07:53:32;;;;;;;21.92;19.83;;;21.10;99.90;;;;;;4965164;28;20065;-77
2021/07/22 07:55:59;;;;;;;22.70;20.23;;;21.20;99.90;;;;;;4964749;28;20053;-75
2021/07/22 07:58:26;;;;;;;24.30;21.63;;;21.40;99.90;;;;;;4966222;28;20455;-78
2021/07/22 08:00:53;;;;;;;22.75;20.63;;;21.30;99.90;;;;;;4964078;28;20054;-76
2021/07/22 08:03:21;;;;;;;25.77;22.05;;;21.40;99.90;;;;;;4955426;28;20298;-76
2021/07/22 08:05:48;;;;;;;24.45;21.88;;;21.40;99.90;;;;;;4945625;28;20142;-75
2021/07/22 08:08:15;;;;;;;22.73;20.45;;;21.50;99.90;;;;;;4953972;28;20436;-76
2021/07/22 08:10:43;;;;;;;24.73;22.23;;;21.70;99.90;;;;;;4961188;28;20094;-76
2021/07/22 08:13:11;;;;;;;24.77;21.58;;;21.80;99.90;;;;;;4962717;28;20055;-76
2021/07/22 08:15:41;;;;;;;21.92;20.02;;;21.90;99.90;;;;;;4945441;28;20542;-77
2021/07/22 08:18:08;;;;;;;23.58;21.33;;;21.90;99.90;;;;;;4954215;28;20598;-75
2021/07/22 08:20:35;;;;;;;24.40;20.88;;;21.90;99.90;;;;;;4959571;28;20054;-77
2021/07/22 08:23:02;;;;;;;24.52;22.00;;;22.00;99.90;;;;;;4941942;29;20156;-76
2021/07/22 08:25:29;;;;;;;23.55;21.35;;;22.00;99.90;;;;;;4926279;28;20106;-78
2021/07/22 08:27:56;;;;;;;23.17;20.92;;;22.00;99.90;;;;;;4937725;29;20127;-77
2021/07/22 08:30:23;;;;;;;23.40;21.00;;;21.90;99.90;;;;;;4946449;28;20059;-76
2021/07/22 08:32:50;;;;;;;26.92;20.67;;;21.80;99.90;;;;;;4962133;28;20421;-77
2021/07/22 08:35:17;;;;;;;23.23;20.83;;;21.80;99.90;;;;;;4965216;28;20487;-77
2021/07/22 08:37:44;;;;;;;21.52;19.33;;;21.80;99.90;;;;;;4944918;28;20522;-77
2021/07/22 08:40:12;;;;;;;25.35;21.23;;;21.60;99.90;;;;;;4945101;28;20177;-76
2021/07/22 08:42:43;;;;;;;22.27;19.98;;;21.50;99.90;;;;;;4945272;28;20057;-75
2021/07/22 08:45:11;;;;;;;23.55;21.05;;;21.50;99.90;;;;;;4945092;28;20076;-75
2021/07/22 08:47:40;;;;;;;24.60;21.55;;;21.40;99.90;;;;;;4961146;28;20401;-76
2021/07/22 08:50:09;;;;;;;23.55;20.83;;;21.40;99.90;;;;;;4956864;28;20119;-76
2021/07/22 08:52:36;;;;;;;23.23;21.00;;;21.30;99.90;;;;;;4945164;28;20142;-76
2021/07/22 08:55:04;;;;;;;23.80;21.48;;;21.20;99.90;;;;;;4951831;28;20106;-78
2021/07/22 08:57:33;;;;;;;23.38;20.98;;;21.40;99.90;;;;;;4947771;28;20051;-76
2021/07/22 09:00:02;;;;;;;22.73;20.52;;;21.40;99.90;;;;;;4945568;29;20059;-77
2021/07/22 09:02:30;;;;;;;22.48;20.10;;;21.20;99.90;;;;;;4945765;28;20043;-75
2021/07/22 09:05:02;;;;;;;25.27;22.80;;;21.20;99.90;;;;;;4945763;28;20464;-76
2021/07/22 09:07:30;;;;;;;26.23;21.92;;;21.30;99.90;;;;;;4945104;28;20059;-77
2021/07/22 09:10:04;;;;;;;24.25;21.70;;;21.40;99.90;;;;;;4945050;29;20185;-76
2021/07/22 09:12:45;;;;;;;23.45;21.15;;;21.20;99.90;;;;;;4946393;28;20046;-76
2021/07/22 09:15:28;;;;;;;24.90;22.45;;;21.20;99.90;;;;;;4946397;28;20546;-76
2021/07/22 09:18:30;;;;;;;25.15;22.73;;;21.10;99.90;;;;;;4934784;28;20051;-76
2021/07/22 09:21:16;;;;;;;24.70;22.20;;;21.10;99.90;;;;;;4959982;28;20055;-76
2021/07/22 09:24:01;;;;;;;;;;;21.20;99.90;;;;;;4948732;28;20055;-77
2021/07/22 09:26:33;;;;;;;23.27;20.92;;;21.20;99.90;;;;;;4978547;28;19922;-77
2021/07/22 09:29:05;;;;;;;22.83;20.42;;;21.10;99.90;;;;;;4961052;28;20392;-76
2021/07/22 09:31:33;;;;;;;23.02;20.38;;;21.00;99.90;;;;;;4945821;28;20065;-77
2021/07/22 09:34:00;;;;;;;22.90;19.83;;;20.80;99.90;;;;;;4947640;28;20081;-76
2021/07/22 09:36:32;;;;;;;26.80;21.35;;;21.00;99.90;;;;;;4950392;28;20140;-74
2021/07/22 09:39:23;;;;;;;26.35;21.10;;;21.00;99.90;;;;;;4947981;28;20083;-76
2021/07/22 09:42:06;;;;;;;24.27;20.77;;;21.00;99.90;;;;;;4941984;28;20323;-77
2021/07/22 09:44:38;;;;;;;22.13;19.75;;;21.20;99.90;;;;;;4960713;28;20067;-76
2021/07/22 09:47:07;;;;;;;25.42;20.40;;;21.30;99.90;;;;;;4962019;28;20054;-76
2021/07/22 09:49:35;;;;;;;23.95;19.88;;;21.20;99.90;;;;;;4966807;28;20824;-76
2021/07/22 09:52:09;;;;;;;24.42;21.77;;;21.20;99.90;;;;;;4938793;28;20051;-77
2021/07/22 09:54:37;;;;;;;22.88;20.50;;;21.40;99.90;;;;;;4948302;28;20372;-75
2021/07/22 09:57:16;;;;;;;23.50;21.17;;;21.50;99.90;;;;;;4949430;28;20051;-76
2021/07/22 09:59:46;;;;;;;24.42;21.92;;;21.60;99.90;;;;;;4930302;28;20086;-76
2021/07/22 10:02:17;;;;;;;23.70;21.27;;;21.60;99.90;;;;;;4947060;28;20599;-76
2021/07/22 10:05:06;;;;;;;23.75;21.65;;;21.70;99.90;;;;;;4956710;28;20098;-75
2021/07/22 10:07:36;;;;;;;24.17;21.67;;;21.80;99.90;;;;;;4948864;28;20074;-77
2021/07/22 10:10:03;;;;;;;25.42;21.67;;;21.80;99.90;;;;;;4963382;28;20146;-76
2021/07/22 10:12:33;;;;;;;24.25;21.67;;;21.80;99.90;;;;;;4949231;28;20516;-75
2021/07/22 10:15:01;;;;;;;23.88;21.38;;;21.90;99.90;;;;;;4949543;28;20272;-77
2021/07/22 10:17:34;;;;;;;24.38;21.85;;;22.20;99.90;;;;;;4957673;28;20646;-77
2021/07/22 10:20:07;;;;;;;23.33;20.63;;;22.40;99.90;;;;;;4949130;28;20078;-79
2021/07/22 10:22:35;;;;;;;23.80;21.30;;;22.60;99.90;;;;;;4948115;28;20309;-76
2021/07/22 10:25:07;;;;;;;24.17;21.67;;;22.70;99.90;;;;;;4962554;28;20248;-78
2021/07/22 10:27:36;;;;;;;26.92;24.15;;;22.70;99.90;;;;;;4934674;29;20054;-76
2021/07/22 10:30:08;;;;;;;24.98;22.35;;;22.80;99.90;;;;;;4963718;28;20047;-77
2021/07/22 10:32:38;;;;;;;23.42;21.02;;;23.00;99.90;;;;;;4950468;28;20082;-77
2021/07/22 10:35:07;;;;;;;24.50;22.17;;;23.00;99.90;;;;;;4944270;28;20047;-78
2021/07/22 10:37:34;;;;;;;23.23;20.98;;;22.80;99.90;;;;;;4967433;28;20065;-76
2021/07/22 10:40:08;;;;;;;22.88;20.70;;;22.70;99.90;;;;;;4930046;29;20134;-77
2021/07/22 10:42:45;;;;;;;22.85;20.75;;;22.80;99.90;;;;;;4947725;28;20098;-78
2021/07/22 10:45:24;;;;;;;22.98;20.67;;;23.00;99.90;;;;;;4950086;28;20098;-79
2021/07/22 10:48:08;;;;;;;22.58;20.27;;;23.10;99.90;;;;;;4956053;28;20105;-77
2021/07/22 10:50:42;;;;;;;21.73;19.67;;;23.20;99.90;;;;;;4972626;28;20042;-77
2021/07/22 10:53:10;;;;;;;20.60;18.52;;;22.90;99.90;;;;;;4967200;28;20113;-77
2021/07/22 10:55:40;;;;;;;21.85;19.77;;;23.00;99.90;;;;;;4964582;28;20067;-77
2021/07/22 10:58:33;;;;;;;20.65;18.67;;;23.20;99.90;;;;;;4948741;29;20066;-77
2021/07/22 11:01:06;;;;;;;22.88;20.42;;;23.70;99.90;;;;;;4947926;28;20122;-78
2021/07/22 11:03:37;;;;;;;21.38;19.38;;;24.20;99.90;;;;;;4945900;28;20074;-78
2021/07/22 11:06:12;;;;;;;23.65;21.45;;;24.30;99.90;;;;;;4957518;28;20507;-77
2021/07/22 11:08:41;;;;;;;20.38;18.42;;;24.40;99.90;;;;;;4948693;28;20086;-77
2021/07/22 11:11:15;;;;;;;19.73;18.13;;;24.80;99.90;;;;;;4947930;28;20135;-78
2021/07/22 11:13:47;;;;;;;22.20;20.20;;;24.90;99.90;;;;;;4947562;29;20050;-78
2021/07/22 11:16:25;;;;;;;23.30;20.98;;;25.00;99.90;;;;;;4956972;28;20053;-76
2021/07/22 11:18:54;;;;;;;22.40;20.40;;;25.20;99.90;;;;;;4954023;28;20055;-78
2021/07/22 11:21:26;;;;;;;23.27;21.15;;;25.30;99.90;;;;;;4947092;28;20411;-78
2021/07/22 11:24:05;;;;;;;21.52;19.38;;;24.20;99.90;;;;;;4949082;28;20432;-78
2021/07/22 11:26:38;;;;;;;20.15;18.35;;;24.10;99.90;;;;;;4928291;28;20051;-77
2021/07/22 11:29:14;;;;;;;19.73;18.02;;;24.30;99.90;;;;;;4945379;28;20051;-77
2021/07/22 11:31:45;;;;;;;19.38;17.45;;;24.50;99.90;;;;;;4947813;28;20047;-77
2021/07/22 11:34:14;;;;;;;22.13;19.65;;;24.50;99.90;;;;;;4960790;28;20130;-78
2021/07/22 11:36:41;;;;;;;21.33;19.02;;;24.30;99.90;;;;;;4961797;28;20065;-78
2021/07/22 11:39:08;;;;;;;21.70;19.50;;;24.20;99.90;;;;;;4947424;28;20043;-77
2021/07/22 11:41:35;;;;;;;24.60;21.98;;;23.90;99.90;;;;;;4946621;28;20054;-78
2021/07/22 11:44:04;;;;;;;23.60;21.08;;;23.80;99.90;;;;;;4928722;29;20135;-76
2021/07/22 11:46:35;;;;;;;23.13;20.85;;;23.70;99.90;;;;;;4946106;28;20602;-76
2021/07/22 11:49:07;;;;;;;22.35;20.13;;;23.70;99.90;;;;;;4939981;28;20046;-78
2021/07/22 11:51:34;;;;;;;22.88;20.55;;;23.90;99.90;;;;;;4945389;28;20870;-78
2021/07/22 11:54:02;;;;;;;26.25;22.98;;;24.10;99.90;;;;;;4929484;28;20070;-79
2021/07/22 11:56:34;;;;;;;25.50;21.65;;;24.20;99.90;;;;;;4968537;28;20125;-76
2021/07/22 11:59:05;;;;;;;23.90;21.52;;;24.40;99.90;;;;;;4929533;29;20512;-76
2021/07/22 12:01:35;;;;;;;23.95;21.63;;;24.50;99.90;;;;;;4962156;28;20086;-77
2021/07/22 12:04:03;;;;;;;25.60;23.10;;;24.60;99.90;;;;;;4947693;28;20055;-78
2021/07/22 12:06:30;;;;;;;25.63;21.23;;;24.80;99.90;;;;;;4949808;28;20054;-78
2021/07/22 12:09:05;;;;;;;25.60;22.60;;;24.70;99.90;;;;;;4938996;29;20051;-77
2021/07/22 12:12:02;;;;;;;24.45;21.85;;;24.00;99.90;;;;;;4961626;28;20047;-76
2021/07/22 12:14:35;;;;;;;24.17;21.65;;;24.30;99.90;;;;;;4922005;29;20059;-78
2021/07/22 12:17:08;;;;;;;24.55;22.30;;;24.50;99.90;;;;;;4945837;28;20051;-75
2021/07/22 12:19:38;;;;;;;24.95;22.52;;;24.50;99.90;;;;;;4950734;28;20145;-77
2021/07/22 12:22:37;;;;;;;24.60;21.98;;;24.80;99.90;;;;;;4964202;28;20055;-79
2021/07/22 12:25:07;;;;;;;22.05;19.73;;;25.10;99.90;;;;;;4971225;28;20046;-77
2021/07/22 12:27:38;;;;;;;23.13;20.70;;;25.20;99.90;;;;;;4961134;28;20118;-76
2021/07/22 12:30:07;;;;;;;23.05;20.85;;;25.00;99.90;;;;;;4945554;28;20051;-76
2021/07/22 12:32:35;;;;;;;22.88;20.48;;;24.90;99.90;;;;;;4948389;28;20459;-76
2021/07/22 12:35:03;;;;;;;23.58;21.27;;;24.90;99.90;;;;;;4956287;28;20542;-73
2021/07/22 12:37:56;;;;;;;24.42;21.38;;;24.90;99.90;;;;;;4962613;28;20504;-77
2021/07/22 12:40:32;;;;;;;23.27;20.98;;;24.90;99.90;;;;;;4951655;28;20054;-77
2021/07/22 12:43:00;;;;;;;24.60;21.95;;;24.90;99.90;;;;;;4930666;29;20055;-78
2021/07/22 12:45:27;;;;;;;24.15;21.75;;;24.70;99.90;;;;;;4961861;28;20050;-77
2021/07/22 12:47:54;;;;;;;23.45;21.08;;;24.50;99.90;;;;;;4941112;28;20059;-77
2021/07/22 12:50:35;;;;;;;24.38;21.88;;;24.40;99.90;;;;;;4958225;28;20069;-76